Imlay, Michigan
Current Conditions -  °F | °C
As of 3:14 PM on Sunday 23 Nov 2014 (Local Time) from KD95 Reporting Station
Overcast Overcast  
Wind Chill: 46°   Ceiling: 3900
Heat Index: 49°   Visibility: 10mi
Dew Point: 44°   Wind: 8mph
Humidity: 81%   Direction: 160°SSE
Pressure: 29.73"   Gusts: NA
Location:  43.0674°N, 83.0557°W
Report Text: KD95 232014Z AUTO 16007KT 10SM OVC039 10/06 A2973 RMK AO2 T00950064
Loading
Personal Weather Stations






























Interactive Weather Map New forecast layout! Learn more

10-Day Weather Forecast

Advertisements
Track Severe Weather on mobile